Decoded Metar for KGCK (GARDEN CITY in KS, USA) (IATA:GCK) | Meteo·Mobile Aviation Weather
aviador You're here:

KGCK Decoded Metar

GARDEN CITY in KS, USA
Report Time2019-01-21 22:54:00
UTC Time2019-01-21 23:45:30
Flight Rules vfr VFR
Wind080° at 05 kt
W.Decomp.*RWY 12: 3.3 kt HW 3.8 kt LCW
RWY 35: 0.8 kt HW 4.9 kt RCW
W.Rank080° ranks 25
Current wind is below 080° avg. (8.7)
Visibility9999 m
Phenomena:N/A
Clouds:N/A
Expected CloudBase > 1,600 ft AGL from Temp-Dew spread
CeilingNone
Temp06°C (ISA -3)
Dew Point02°C (76% RH)
AAT2.5°C
QNH998 hPa
Density Alt3,100 ft
Elevation2,877 ft
Report Wrong Elevation
Raw Report
KGCK 212254Z 08005KT 10SM CLR 06/02 A2946 RMK AO2 SLP985
T00560022=

Extra information for KGCK:More info

Metar Taf Metar & Taf Last 4 Metars F.Rules Stats Wind Profile Meteogram Temp Stats Airport Information Weather charts Add Link Nearby VenuesMetar ALERT Operation Metar Decoded Social comments

AIRNAV info for KGCK